Time;durP1;ratioP1;P1;durP2;ratioP2;P2;SDS_P1;SDS_P2;PMS_P1;PMS_P2;Temp;Humidity;BMP_temperature;BMP_pressure;BME280_temperature;BME280_humidity;BME280_pressure;Samples;Min_cycle;Max_cycle;Signal;HPM_P1;HPM_P2
2022/02/15 00:01:01;;;;;;;19.13;3.40;;;;;;;;;;4953284;28;20098;-71
2022/02/15 00:03:27;;;;;;;17.88;3.33;;;;;;;;;;4955557;28;20134;-72
2022/02/15 00:06:00;;;;;;;12.13;3.67;;;;;;;;;;4953395;28;20138;-72
2022/02/15 00:08:27;;;;;;;11.93;2.10;;;;;;;;;;4954140;28;20421;-72
2022/02/15 00:10:53;;;;;;;25.75;4.07;;;;;;;;;;4953184;28;20507;-71
2022/02/15 00:13:26;;;;;;;15.57;3.63;;;;;;;;;;4952118;28;20051;-71
2022/02/15 00:15:53;;;;;;;22.25;3.20;;;;;;;;;;4950749;28;20595;-71
2022/02/15 00:18:19;;;;;;;18.85;3.95;;;;;;;;;;4953689;28;20082;-72
2022/02/15 00:20:52;;;;;;;14.23;3.30;;;;;;;;;;4956464;28;20129;-71
2022/02/15 00:23:18;;;;;;;8.25;2.75;;;;;;;;;;4953077;28;20130;-71
2022/02/15 00:25:45;;;;;;;18.73;2.92;;;;;;;;;;4952209;28;20151;-72
2022/02/15 00:28:12;;;;;;;17.38;3.45;;;;;;;;;;4955633;28;20139;-71
2022/02/15 00:30:38;;;;;;;13.82;2.92;;;;;;;;;;4952518;28;20067;-71
2022/02/15 00:33:05;;;;;;;15.00;2.60;;;;;;;;;;4945293;28;20050;-71
2022/02/15 00:35:31;;;;;;;13.13;2.92;;;;;;;;;;4943575;28;20142;-71
2022/02/15 00:37:58;;;;;;;14.68;2.92;;;;;;;;;;4941959;28;20665;-71
2022/02/15 00:40:24;;;;;;;9.50;2.88;;;;;;;;;;4942614;28;20055;-72
2022/02/15 00:42:50;;;;;;;15.35;2.60;;;;;;;;;;4941667;28;20602;-72
2022/02/15 00:45:17;;;;;;;14.27;2.55;;;;;;;;;;4942967;28;20142;-72
2022/02/15 00:47:44;;;;;;;6.67;1.93;;;;;;;;;;4943113;28;20462;-71
2022/02/15 00:50:13;;;;;;;13.55;3.28;;;;;;;;;;4939902;28;20298;-71
2022/02/15 00:52:40;;;;;;;17.13;3.13;;;;;;;;;;4940475;28;20475;-72
2022/02/15 00:55:09;;;;;;;17.85;3.38;;;;;;;;;;4943283;28;20047;-71
2022/02/15 00:57:37;;;;;;;9.27;2.60;;;;;;;;;;4943475;28;20137;-71
2022/02/15 01:00:04;;;;;;;11.93;2.70;;;;;;;;;;4941290;28;20567;-71
2022/02/15 01:02:30;;;;;;;20.17;3.10;;;;;;;;;;4943159;28;20861;-72
2022/02/15 01:04:58;;;;;;;10.25;2.40;;;;;;;;;;4940818;28;20882;-71
2022/02/15 01:07:25;;;;;;;9.60;2.90;;;;;;;;;;4946854;28;20093;-71
2022/02/15 01:09:51;;;;;;;16.42;3.22;;;;;;;;;;4944821;28;20162;-71
2022/02/15 01:12:18;;;;;;;13.50;2.90;;;;;;;;;;4951171;28;20134;-72
2022/02/15 01:14:44;;;;;;;22.02;3.72;;;;;;;;;;4940686;28;20389;-72
2022/02/15 01:17:11;;;;;;;23.00;3.35;;;;;;;;;;4942249;28;20171;-71
2022/02/15 01:19:38;;;;;;;16.40;3.17;;;;;;;;;;4940429;28;20586;-71
2022/02/15 01:22:04;;;;;;;15.32;2.63;;;;;;;;;;4939440;28;20717;-71
2022/02/15 01:24:31;;;;;;;13.32;2.65;;;;;;;;;;4942779;28;20055;-71
2022/02/15 01:27:03;;;;;;;11.00;3.00;;;;;;;;;;4939785;28;20121;-71
2022/02/15 01:29:29;;;;;;;18.60;2.65;;;;;;;;;;4941436;28;20495;-71
2022/02/15 01:31:56;;;;;;;17.88;2.92;;;;;;;;;;4941640;28;20051;-71
2022/02/15 01:34:24;;;;;;;17.23;2.78;;;;;;;;;;4940778;28;20559;-71
2022/02/15 01:36:51;;;;;;;17.27;3.03;;;;;;;;;;4942115;28;20139;-71
2022/02/15 01:39:17;;;;;;;24.73;3.00;;;;;;;;;;4944451;28;20146;-71
2022/02/15 01:41:44;;;;;;;11.70;1.98;;;;;;;;;;4946744;28;20146;-71
2022/02/15 01:44:11;;;;;;;17.92;2.83;;;;;;;;;;4954073;28;20145;-71
2022/02/15 01:46:38;;;;;;;22.77;3.75;;;;;;;;;;4953548;28;20054;-72
2022/02/15 01:49:05;;;;;;;14.20;2.92;;;;;;;;;;4954411;28;20079;-71
2022/02/15 01:51:32;;;;;;;13.82;2.70;;;;;;;;;;4954886;28;20145;-71
2022/02/15 01:53:58;;;;;;;19.17;3.20;;;;;;;;;;4953509;28;20506;-71
2022/02/15 01:56:27;;;;;;;12.98;2.90;;;;;;;;;;4959359;28;20051;-71
2022/02/15 01:58:55;;;;;;;;;;;;;;;;;;4955305;28;20758;-71
2022/02/15 02:01:22;;;;;;;18.03;4.57;;;;;;;;;;4953830;28;19950;-71
2022/02/15 02:03:55;;;;;;;11.23;2.83;;;;;;;;;;4952631;28;20086;-71
2022/02/15 02:06:21;;;;;;;13.38;3.17;;;;;;;;;;4960204;28;20555;-71
2022/02/15 02:08:48;;;;;;;18.35;2.88;;;;;;;;;;4952413;28;20578;-71
2022/02/15 02:11:15;;;;;;;;;;;;;;;;;;4957699;28;20094;-71
2022/02/15 02:13:42;;;;;;;17.25;3.20;;;;;;;;;;4956023;28;20386;-71
2022/02/15 02:16:08;;;;;;;13.35;3.15;;;;;;;;;;4956594;28;20082;-71
2022/02/15 02:18:35;;;;;;;20.33;2.95;;;;;;;;;;4954382;28;20051;-71
2022/02/15 02:21:03;;;;;;;19.15;3.42;;;;;;;;;;4957192;28;20055;-71
2022/02/15 02:23:29;;;;;;;;;;;;;;;;;;4955982;28;20039;-71
2022/02/15 02:25:56;;;;;;;16.38;3.50;;;;;;;;;;4955752;28;19977;-71
2022/02/15 02:28:23;;;;;;;16.42;4.30;;;;;;;;;;4952008;28;20086;-71
2022/02/15 02:30:49;;;;;;;20.48;3.70;;;;;;;;;;4957270;28;20082;-71
2022/02/15 02:33:16;;;;;;;18.45;5.40;;;;;;;;;;4952501;28;20083;-71
2022/02/15 02:35:43;;;;;;;25.23;4.30;;;;;;;;;;4953824;28;20292;-71
2022/02/15 02:38:09;;;;;;;17.10;4.03;;;;;;;;;;4954075;28;20471;-71
2022/02/15 02:40:44;;;;;;;25.52;4.70;;;;;;;;;;4948768;28;20114;-71
2022/02/15 02:43:10;;;;;;;11.63;3.30;;;;;;;;;;4936169;29;20103;-70
2022/02/15 02:45:37;;;;;;;14.53;3.87;;;;;;;;;;4937897;29;20163;-71
2022/02/15 02:48:03;;;;;;;13.00;3.88;;;;;;;;;;4936476;29;20147;-71
2022/02/15 02:50:30;;;;;;;12.20;3.80;;;;;;;;;;4933054;29;20147;-71
2022/02/15 02:53:09;;;;;;;13.95;3.67;;;;;;;;;;4934850;29;20606;-71
2022/02/15 02:55:35;;;;;;;11.75;4.35;;;;;;;;;;4935653;29;20193;-72
2022/02/15 02:58:02;;;;;;;13.18;4.05;;;;;;;;;;4931817;29;20134;-71
2022/02/15 03:00:29;;;;;;;19.52;3.97;;;;;;;;;;4933660;29;20044;-71
2022/02/15 03:02:57;;;;;;;13.70;4.32;;;;;;;;;;4936263;29;20047;-71
2022/02/15 03:05:23;;;;;;;15.02;4.50;;;;;;;;;;4936743;29;20055;-71
2022/02/15 03:07:56;;;;;;;15.02;4.22;;;;;;;;;;4937345;29;20055;-71
2022/02/15 03:10:23;;;;;;;19.00;4.40;;;;;;;;;;4938375;29;20407;-71
2022/02/15 03:12:49;;;;;;;16.95;4.63;;;;;;;;;;4934443;29;20151;-71
2022/02/15 03:15:17;;;;;;;17.23;4.95;;;;;;;;;;4933274;29;20078;-71
2022/02/15 03:17:44;;;;;;;14.48;5.07;;;;;;;;;;4934666;29;20472;-71
2022/02/15 03:20:25;;;;;;;19.55;5.25;;;;;;;;;;4937549;29;20047;-70
2022/02/15 03:22:58;;;;;;;14.48;4.65;;;;;;;;;;4934559;29;20125;-71
2022/02/15 03:25:25;;;;;;;20.30;6.40;;;;;;;;;;4934138;29;20131;-71
2022/02/15 03:27:51;;;;;;;17.55;5.63;;;;;;;;;;4933584;29;20102;-71
2022/02/15 03:30:20;;;;;;;15.52;6.30;;;;;;;;;;4934547;29;20083;-71
2022/02/15 03:32:46;;;;;;;18.17;6.20;;;;;;;;;;4933127;29;20150;-71
2022/02/15 03:35:13;;;;;;;21.08;6.80;;;;;;;;;;4932846;29;20142;-71
2022/02/15 03:37:42;;;;;;;15.57;5.43;;;;;;;;;;4934599;29;20122;-71
2022/02/15 03:40:09;;;;;;;21.38;6.15;;;;;;;;;;4936039;29;20146;-71
2022/02/15 03:45:20;;;;;;;24.90;7.95;;;;;;;;;;4951904;28;20082;-71
2022/02/15 03:47:47;;;;;;;14.32;6.15;;;;;;;;;;4952691;28;20134;-72
2022/02/15 03:50:13;;;;;;;23.38;8.02;;;;;;;;;;4952724;28;20117;-72
2022/02/15 03:52:40;;;;;;;23.75;9.38;;;;;;;;;;4951907;28;20097;-71
2022/02/15 03:55:07;;;;;;;22.77;8.32;;;;;;;;;;4953373;28;20133;-71
2022/02/15 03:57:36;;;;;;;19.27;9.05;;;;;;;;;;4952923;28;20680;-71
2022/02/15 04:00:09;;;;;;;20.85;8.68;;;;;;;;;;4951686;28;20082;-72
2022/02/15 04:02:36;;;;;;;25.93;8.90;;;;;;;;;;4954527;28;20541;-72
2022/02/15 04:05:04;;;;;;;23.40;9.35;;;;;;;;;;4953546;28;20052;-72
2022/02/15 04:07:35;;;;;;;23.40;9.73;;;;;;;;;;4948655;28;20094;-72
2022/02/15 04:10:01;;;;;;;22.92;9.70;;;;;;;;;;4954712;28;20691;-71
2022/02/15 04:12:28;;;;;;;30.90;11.80;;;;;;;;;;4953173;28;20102;-71
2022/02/15 04:14:56;;;;;;;24.50;10.63;;;;;;;;;;4951183;28;20066;-71
2022/02/15 04:17:22;;;;;;;26.20;10.63;;;;;;;;;;4951660;28;20138;-71
2022/02/15 04:19:49;;;;;;;26.23;11.13;;;;;;;;;;4952910;28;20134;-71
2022/02/15 04:22:22;;;;;;;25.75;12.15;;;;;;;;;;4953817;28;20491;-72
2022/02/15 04:24:49;;;;;;;33.45;12.82;;;;;;;;;;4953560;28;20093;-72
2022/02/15 04:27:18;;;;;;;26.55;12.27;;;;;;;;;;4954627;28;20477;-72
2022/02/15 04:29:51;;;;;;;29.63;12.05;;;;;;;;;;4952842;28;20082;-72
2022/02/15 04:32:17;;;;;;;30.50;13.35;;;;;;;;;;4950335;28;20106;-73
2022/02/15 04:34:44;;;;;;;34.28;14.13;;;;;;;;;;4951592;28;20503;-73
2022/02/15 04:37:14;;;;;;;33.70;15.23;;;;;;;;;;4949957;28;20804;-73
2022/02/15 04:39:42;;;;;;;29.38;15.43;;;;;;;;;;4949666;28;20090;-73
2022/02/15 04:42:08;;;;;;;28.98;15.13;;;;;;;;;;4952544;28;20166;-73
2022/02/15 04:44:35;;;;;;;33.40;16.52;;;;;;;;;;4952717;28;20459;-73
2022/02/15 04:47:02;;;;;;;36.15;17.25;;;;;;;;;;4952015;28;20139;-73
2022/02/15 04:49:29;;;;;;;35.38;17.23;;;;;;;;;;4953484;28;20047;-73
2022/02/15 04:51:56;;;;;;;32.28;16.73;;;;;;;;;;4955200;28;20146;-73
2022/02/15 04:54:22;;;;;;;32.70;17.23;;;;;;;;;;4951058;28;20594;-72
2022/02/15 04:56:49;;;;;;;39.95;18.98;;;;;;;;;;4951015;28;20092;-72
2022/02/15 04:59:16;;;;;;;30.08;15.80;;;;;;;;;;4954135;28;20617;-72
2022/02/15 05:01:42;;;;;;;38.65;16.65;;;;;;;;;;4952414;28;20507;-72
2022/02/15 05:04:48;;;;;;;36.97;18.63;;;;;;;;;;4951193;28;20598;-73
2022/02/15 05:06:58;;;;;;;34.78;18.35;;;;;;;;;;4950137;28;20131;-72
2022/02/15 05:09:28;;;;;;;38.47;17.77;;;;;;;;;;4956008;28;20146;-72
2022/02/15 05:11:55;;;;;;;37.22;19.27;;;;;;;;;;4950561;28;20098;-72
2022/02/15 05:14:24;;;;;;;36.70;18.42;;;;;;;;;;4956942;28;20093;-72
2022/02/15 05:16:51;;;;;;;38.15;17.35;;;;;;;;;;4957276;28;20129;-71
2022/02/15 05:19:17;;;;;;;33.03;17.08;;;;;;;;;;4955391;28;20137;-72
2022/02/15 05:21:44;;;;;;;34.53;17.90;;;;;;;;;;4954744;28;20138;-72
2022/02/15 05:24:10;;;;;;;35.08;15.75;;;;;;;;;;4956000;28;20475;-72
2022/02/15 05:26:37;;;;;;;35.53;15.75;;;;;;;;;;4956584;28;20917;-71
2022/02/15 05:29:04;;;;;;;35.72;16.10;;;;;;;;;;4955810;28;20150;-72
2022/02/15 05:31:30;;;;;;;34.03;16.08;;;;;;;;;;4953170;28;20133;-72
2022/02/15 05:33:57;;;;;;;35.78;16.38;;;;;;;;;;4955213;28;20514;-72
2022/02/15 05:36:26;;;;;;;29.50;15.10;;;;;;;;;;4953955;28;20079;-71
2022/02/15 05:38:52;;;;;;;30.75;13.80;;;;;;;;;;4954970;28;20101;-72
2022/02/15 05:41:18;;;;;;;28.85;13.90;;;;;;;;;;4953911;28;20134;-73
2022/02/15 05:43:45;;;;;;;37.53;15.40;;;;;;;;;;4955646;28;20150;-73
2022/02/15 05:46:11;;;;;;;38.77;14.10;;;;;;;;;;4954108;28;20121;-73
2022/02/15 05:48:38;;;;;;;35.00;12.55;;;;;;;;;;4958596;28;20130;-74
2022/02/15 05:51:06;;;;;;;26.58;12.70;;;;;;;;;;4954304;28;20126;-73
2022/02/15 05:53:32;;;;;;;30.80;11.95;;;;;;;;;;4951549;28;20138;-73
2022/02/15 05:56:01;;;;;;;19.60;9.38;;;;;;;;;;4953879;28;20126;-73
2022/02/15 05:58:29;;;;;;;19.92;8.60;;;;;;;;;;4953057;28;20082;-74
2022/02/15 06:01:00;;;;;;;19.83;8.73;;;;;;;;;;4952597;28;20087;-73
2022/02/15 06:06:18;;;;;;;18.23;7.97;;;;;;;;;;4954635;28;20138;-73
2022/02/15 06:08:45;;;;;;;14.93;7.68;;;;;;;;;;4953330;28;20454;-73
2022/02/15 06:11:11;;;;;;;24.52;8.05;;;;;;;;;;4957882;28;20453;-73
2022/02/15 06:13:45;;;;;;;15.82;5.55;;;;;;;;;;4954625;28;20139;-73
2022/02/15 06:16:11;;;;;;;16.35;6.20;;;;;;;;;;4953043;28;20109;-73
2022/02/15 06:18:37;;;;;;;18.02;6.50;;;;;;;;;;4967945;28;20085;-73
2022/02/15 06:21:04;;;;;;;10.50;4.43;;;;;;;;;;4953941;28;20110;-73
2022/02/15 06:23:31;;;;;;;13.27;4.78;;;;;;;;;;4954508;28;20500;-73
2022/02/15 06:25:57;;;;;;;13.70;4.82;;;;;;;;;;4954681;28;20146;-73
2022/02/15 06:28:30;;;;;;;11.23;4.30;;;;;;;;;;4953471;28;20082;-73
2022/02/15 06:30:57;;;;;;;13.27;3.92;;;;;;;;;;4953411;28;20047;-73
2022/02/15 06:33:23;;;;;;;14.05;4.07;;;;;;;;;;4956726;28;20083;-73
2022/02/15 06:35:54;;;;;;;6.88;3.60;;;;;;;;;;4957543;28;20395;-73
2022/02/15 06:38:22;;;;;;;8.75;3.78;;;;;;;;;;4955906;28;20079;-73
2022/02/15 06:40:48;;;;;;;12.80;3.53;;;;;;;;;;4953779;28;20117;-73
2022/02/15 06:43:19;;;;;;;9.20;2.50;;;;;;;;;;4958586;28;20137;-73
2022/02/15 06:45:46;;;;;;;9.32;2.42;;;;;;;;;;4953240;28;20078;-73
2022/02/15 06:48:12;;;;;;;13.35;2.30;;;;;;;;;;4955538;28;20141;-72
2022/02/15 06:50:39;;;;;;;8.32;2.63;;;;;;;;;;4954090;28;20101;-73
2022/02/15 06:53:06;;;;;;;6.07;2.30;;;;;;;;;;4956394;28;20135;-72
2022/02/15 06:55:52;;;;;;;11.30;2.40;;;;;;;;;;4955636;28;20039;-73
2022/02/15 06:58:24;;;;;;;7.03;2.53;;;;;;;;;;4953168;28;20051;-73
2022/02/15 07:00:50;;;;;;;12.95;3.00;;;;;;;;;;4954125;28;20086;-73
2022/02/15 07:03:17;;;;;;;6.47;2.83;;;;;;;;;;4950939;28;20141;-73
2022/02/15 07:05:50;;;;;;;10.85;2.25;;;;;;;;;;4952822;28;20082;-73
2022/02/15 07:08:18;;;;;;;8.73;2.00;;;;;;;;;;4956630;28;20089;-73
2022/02/15 07:10:46;;;;;;;15.98;3.15;;;;;;;;;;4953677;28;20146;-73
2022/02/15 07:13:13;;;;;;;21.55;3.05;;;;;;;;;;4953934;28;20878;-73
2022/02/15 07:15:40;;;;;;;16.15;2.53;;;;;;;;;;4953794;28;20527;-73
2022/02/15 07:18:06;;;;;;;14.68;3.05;;;;;;;;;;4952215;28;20122;-73
2022/02/15 07:20:35;;;;;;;22.52;3.05;;;;;;;;;;4951093;28;20583;-73
2022/02/15 07:23:03;;;;;;;11.82;2.63;;;;;;;;;;4955860;28;20419;-73
2022/02/15 07:25:29;;;;;;;23.00;2.70;;;;;;;;;;4950319;28;20047;-73
2022/02/15 07:27:56;;;;;;;18.85;2.90;;;;;;;;;;4952045;28;20134;-72
2022/02/15 07:30:22;;;;;;;20.80;2.85;;;;;;;;;;4954515;28;20078;-73
2022/02/15 07:32:49;;;;;;;25.02;2.95;;;;;;;;;;4954573;28;20051;-73
2022/02/15 07:35:22;;;;;;;25.48;2.83;;;;;;;;;;4953012;28;20602;-73
2022/02/15 07:37:49;;;;;;;22.35;2.70;;;;;;;;;;4952596;28;20086;-73
2022/02/15 07:40:21;;;;;;;22.53;3.33;;;;;;;;;;4950442;28;20071;-73
2022/02/15 07:42:48;;;;;;;31.70;3.08;;;;;;;;;;4951494;28;20866;-73
2022/02/15 07:45:18;;;;;;;23.42;3.17;;;;;;;;;;4952770;28;20087;-73
2022/02/15 07:47:46;;;;;;;21.58;3.35;;;;;;;;;;4952055;28;20101;-73
2022/02/15 07:50:13;;;;;;;26.63;3.33;;;;;;;;;;4953181;28;20153;-73
2022/02/15 07:52:40;;;;;;;32.00;3.47;;;;;;;;;;4955097;28;20083;-73
2022/02/15 07:55:07;;;;;;;33.75;3.17;;;;;;;;;;4952133;28;20581;-73
2022/02/15 07:57:34;;;;;;;25.60;3.15;;;;;;;;;;4952678;28;20090;-74
2022/02/15 08:00:01;;;;;;;26.15;2.85;;;;;;;;;;4932410;28;20134;-72
2022/02/15 08:02:27;;;;;;;24.33;5.93;;;;;;;;;;4952240;28;20098;-73
2022/02/15 08:04:55;;;;;;;24.33;3.15;;;;;;;;;;4949839;28;20093;-74
2022/02/15 08:07:21;;;;;;;25.65;3.53;;;;;;;;;;4952492;28;20093;-73
2022/02/15 08:09:47;;;;;;;22.35;4.07;;;;;;;;;;4950723;28;20665;-72
2022/02/15 08:12:19;;;;;;;29.75;3.95;;;;;;;;;;4954122;28;20072;-72
2022/02/15 08:14:46;;;;;;;31.88;4.72;;;;;;;;;;4951090;28;20098;-72
2022/02/15 08:17:12;;;;;;;21.10;2.67;;;;;;;;;;4952859;28;20130;-72
2022/02/15 08:19:45;;;;;;;21.08;3.00;;;;;;;;;;4953075;28;20093;-73
2022/02/15 08:22:12;;;;;;;23.33;3.35;;;;;;;;;;4954248;28;20508;-73
2022/02/15 08:24:40;;;;;;;25.48;3.25;;;;;;;;;;4952774;28;20051;-73
2022/02/15 08:27:09;;;;;;;26.45;3.75;;;;;;;;;;4950441;28;20053;-73
2022/02/15 08:29:35;;;;;;;38.90;4.20;;;;;;;;;;4951635;28;20454;-73
2022/02/15 08:32:02;;;;;;;30.13;3.40;;;;;;;;;;4951384;28;20046;-73
2022/02/15 08:34:29;;;;;;;24.65;3.33;;;;;;;;;;4952129;28;20089;-73
2022/02/15 08:36:56;;;;;;;24.00;3.45;;;;;;;;;;4954288;28;20074;-72
2022/02/15 08:39:22;;;;;;;32.22;3.58;;;;;;;;;;4954001;28;20147;-72
2022/02/15 08:41:50;;;;;;;36.33;5.68;;;;;;;;;;4955260;28;20082;-72
2022/02/15 08:44:16;;;;;;;28.55;3.20;;;;;;;;;;4949919;28;20062;-73
2022/02/15 08:46:43;;;;;;;32.78;4.43;;;;;;;;;;4955235;28;20051;-73
2022/02/15 08:49:13;;;;;;;27.55;4.30;;;;;;;;;;4952942;28;20567;-73
2022/02/15 08:51:40;;;;;;;33.17;4.20;;;;;;;;;;4951945;28;20134;-74
2022/02/15 08:54:07;;;;;;;26.85;3.35;;;;;;;;;;4956763;28;20086;-72
2022/02/15 08:56:34;;;;;;;22.27;3.28;;;;;;;;;;4955023;28;20138;-72
2022/02/15 08:59:00;;;;;;;29.70;3.88;;;;;;;;;;4954461;28;20134;-72
2022/02/15 09:01:27;;;;;;;20.55;3.35;;;;;;;;;;4955105;28;20142;-72
2022/02/15 09:04:00;;;;;;;30.02;3.40;;;;;;;;;;4954946;28;20082;-73
2022/02/15 09:06:34;;;;;;;25.02;3.38;;;;;;;;;;4953106;28;20047;-73
2022/02/15 09:09:03;;;;;;;25.77;3.08;;;;;;;;;;4941814;28;20133;-73
2022/02/15 09:11:29;;;;;;;33.55;4.57;;;;;;;;;;4954554;28;20051;-73
2022/02/15 09:13:55;;;;;;;43.33;3.95;;;;;;;;;;4954660;28;20142;-73
2022/02/15 09:16:22;;;;;;;34.50;4.00;;;;;;;;;;4954969;28;20126;-72
2022/02/15 09:18:49;;;;;;;24.40;3.67;;;;;;;;;;4955804;28;20142;-72
2022/02/15 09:21:16;;;;;;;31.05;3.85;;;;;;;;;;4952548;28;20514;-72
2022/02/15 09:23:46;;;;;;;39.38;3.97;;;;;;;;;;4954974;28;20099;-72
2022/02/15 09:26:12;;;;;;;31.65;4.50;;;;;;;;;;4953169;28;20466;-73
2022/02/15 09:28:39;;;;;;;23.73;3.28;;;;;;;;;;4953958;28;20109;-72
2022/02/15 09:31:07;;;;;;;34.08;4.70;;;;;;;;;;4954309;28;20147;-72
2022/02/15 09:33:33;;;;;;;43.95;4.55;;;;;;;;;;4953373;28;20573;-73
2022/02/15 09:36:20;;;;;;;38.75;4.20;;;;;;;;;;4955935;28;20055;-73
2022/02/15 09:38:48;;;;;;;35.95;4.80;;;;;;;;;;4952774;28;20158;-73
2022/02/15 09:41:15;;;;;;;38.97;4.60;;;;;;;;;;4952302;28;20082;-72
2022/02/15 09:43:42;;;;;;;24.52;3.83;;;;;;;;;;4955100;28;20134;-73
2022/02/15 09:46:11;;;;;;;35.22;3.97;;;;;;;;;;4954261;28;20170;-72
2022/02/15 09:48:38;;;;;;;28.45;4.35;;;;;;;;;;4956096;28;20105;-71
2022/02/15 09:51:08;;;;;;;41.63;4.07;;;;;;;;;;4955545;28;20460;-73
2022/02/15 09:53:36;;;;;;;31.83;3.85;;;;;;;;;;4952635;28;20075;-72
2022/02/15 09:56:04;;;;;;;49.65;6.25;;;;;;;;;;4953459;28;20138;-73
2022/02/15 09:58:30;;;;;;;38.53;6.13;;;;;;;;;;4954992;28;20077;-73
2022/02/15 10:01:00;;;;;;;34.90;4.18;;;;;;;;;;4952714;28;20066;-73
2022/02/15 10:03:27;;;;;;;29.40;4.03;;;;;;;;;;4952091;28;20051;-72
2022/02/15 10:05:53;;;;;;;36.42;4.63;;;;;;;;;;4953829;28;20145;-73
2022/02/15 10:08:27;;;;;;;38.10;5.13;;;;;;;;;;4955139;28;20134;-73
2022/02/15 10:10:54;;;;;;;46.83;5.38;;;;;;;;;;4951809;28;20074;-73
2022/02/15 10:13:21;;;;;;;40.53;4.63;;;;;;;;;;4953400;28;20051;-73
2022/02/15 10:15:51;;;;;;;38.17;5.25;;;;;;;;;;4954525;28;20078;-73
2022/02/15 10:18:22;;;;;;;58.53;6.75;;;;;;;;;;4954362;28;20100;-72
2022/02/15 10:20:53;;;;;;;43.13;5.88;;;;;;;;;;4957390;28;20512;-72
2022/02/15 10:23:30;;;;;;;49.33;5.05;;;;;;;;;;4955670;28;20102;-71
2022/02/15 10:25:58;;;;;;;39.58;6.97;;;;;;;;;;4957241;28;20079;-72
2022/02/15 10:28:26;;;;;;;50.88;6.18;;;;;;;;;;4956487;28;20146;-72
2022/02/15 10:30:59;;;;;;;55.88;6.53;;;;;;;;;;4953138;28;20828;-72
2022/02/15 10:33:29;;;;;;;48.03;5.90;;;;;;;;;;4955790;28;20495;-73
2022/02/15 10:36:00;;;;;;;42.47;6.03;;;;;;;;;;4958142;28;20134;-73
2022/02/15 10:38:49;;;;;;;42.15;5.80;;;;;;;;;;4953732;28;20055;-72
2022/02/15 10:41:19;;;;;;;48.88;5.40;;;;;;;;;;4953201;28;20077;-73
2022/02/15 10:43:49;;;;;;;47.00;5.60;;;;;;;;;;4954122;28;20153;-72
2022/02/15 10:46:19;;;;;;;45.28;6.75;;;;;;;;;;4955996;28;20106;-72
2022/02/15 10:48:47;;;;;;;55.13;5.82;;;;;;;;;;4954882;28;20539;-73
2022/02/15 10:51:14;;;;;;;37.13;5.80;;;;;;;;;;4954604;28;20047;-71
2022/02/15 10:53:55;;;;;;;45.55;5.13;;;;;;;;;;4956943;28;20058;-71
2022/02/15 10:56:29;;;;;;;49.95;6.45;;;;;;;;;;4952380;28;20086;-72
2022/02/15 10:58:57;;;;;;;43.80;6.35;;;;;;;;;;4956500;28;20093;-72
2022/02/15 11:01:24;;;;;;;40.30;5.35;;;;;;;;;;4955394;28;20138;-72
2022/02/15 11:03:52;;;;;;;48.17;6.17;;;;;;;;;;4953714;28;20155;-72
2022/02/15 11:06:18;;;;;;;37.97;5.18;;;;;;;;;;4951012;28;20167;-72
2022/02/15 11:08:52;;;;;;;41.83;6.22;;;;;;;;;;4969248;28;20142;-73
2022/02/15 11:11:22;;;;;;;41.22;4.90;;;;;;;;;;4951766;28;20142;-72
2022/02/15 11:13:48;;;;;;;41.45;6.88;;;;;;;;;;4951828;28;20075;-72
2022/02/15 11:16:22;;;;;;;34.55;4.80;;;;;;;;;;4952852;28;20074;-72
2022/02/15 11:18:48;;;;;;;33.67;5.20;;;;;;;;;;4952685;28;20118;-72
2022/02/15 11:21:23;;;;;;;32.55;3.88;;;;;;;;;;4957225;28;20494;-71
2022/02/15 11:24:00;;;;;;;39.00;7.15;;;;;;;;;;4955736;28;20075;-71
2022/02/15 11:26:34;;;;;;;31.98;4.78;;;;;;;;;;4950757;28;20085;-71
2022/02/15 11:29:04;;;;;;;30.15;4.88;;;;;;;;;;4951615;28;20050;-71
2022/02/15 11:31:30;;;;;;;32.47;5.40;;;;;;;;;;4953557;28;20555;-71
2022/02/15 11:34:02;;;;;;;37.75;4.30;;;;;;;;;;4951673;28;20051;-71
2022/02/15 11:36:46;;;;;;;32.50;4.72;;;;;;;;;;4905483;27;4835921;-71
2022/02/15 11:39:17;;;;;;;37.17;6.15;;;;;;;;;;5070435;28;20079;-70
2022/02/15 11:41:49;;;;;;;35.85;5.03;;;;;;;;;;5072507;28;20630;-70
2022/02/15 11:44:15;;;;;;;38.05;4.95;;;;;;;;;;5081419;28;20086;-70
2022/02/15 11:46:46;;;;;;;28.08;4.35;;;;;;;;;;5092795;28;20106;-70
2022/02/15 11:49:14;;;;;;;39.75;4.32;;;;;;;;;;5092211;28;20142;-70
2022/02/15 11:51:41;;;;;;;34.47;4.75;;;;;;;;;;5093149;28;20075;-70
2022/02/15 11:54:15;;;;;;;38.45;4.63;;;;;;;;;;5089217;28;20072;-71
2022/02/15 11:56:47;;;;;;;31.98;5.22;;;;;;;;;;5090753;28;20132;-70
2022/02/15 11:59:14;;;;;;;24.77;4.20;;;;;;;;;;5092745;28;20128;-70
2022/02/15 12:02:03;;;;;;;28.35;4.63;;;;;;;;;;5095012;28;20063;-69
2022/02/15 12:04:29;;;;;;;18.83;3.80;;;;;;;;;;5093725;28;20084;-70
2022/02/15 12:06:58;;;;;;;39.35;4.55;;;;;;;;;;5093516;28;20411;-69
2022/02/15 12:09:26;;;;;;;31.50;3.75;;;;;;;;;;5090786;28;20094;-69
2022/02/15 12:11:53;;;;;;;21.75;3.63;;;;;;;;;;5097444;28;20093;-69
2022/02/15 12:14:27;;;;;;;25.15;3.38;;;;;;;;;;5093336;28;20049;-69
2022/02/15 12:16:55;;;;;;;37.17;4.15;;;;;;;;;;5092127;28;20072;-69
2022/02/15 12:19:21;;;;;;;;;;;;;;;;;;5099493;28;20080;-69
2022/02/15 12:21:56;;;;;;;22.40;4.03;;;;;;;;;;5092797;28;20011;-70
2022/02/15 12:24:23;;;;;;;29.63;3.45;;;;;;;;;;5094430;28;20123;-69
2022/02/15 12:26:50;;;;;;;34.65;4.60;;;;;;;;;;5095618;28;20079;-70
2022/02/15 12:29:23;;;;;;;23.80;3.70;;;;;;;;;;5110054;28;20079;-69
2022/02/15 12:31:53;;;;;;;32.07;4.83;;;;;;;;;;5113399;28;20047;-70
2022/02/15 12:34:20;;;;;;;36.03;4.38;;;;;;;;;;5110681;28;20380;-68
2022/02/15 12:36:48;;;;;;;20.38;3.63;;;;;;;;;;5113024;28;20850;-69
2022/02/15 12:39:14;;;;;;;28.20;4.15;;;;;;;;;;5113598;28;20572;-69
2022/02/15 12:41:43;;;;;;;24.17;3.78;;;;;;;;;;5113804;28;20130;-70
2022/02/15 12:44:09;;;;;;;30.60;4.68;;;;;;;;;;5111696;28;20142;-69
2022/02/15 12:46:37;;;;;;;26.25;4.18;;;;;;;;;;5106763;28;20044;-70
2022/02/15 12:49:04;;;;;;;25.75;3.70;;;;;;;;;;5096323;28;20127;-70
2022/02/15 12:51:33;;;;;;;18.55;3.28;;;;;;;;;;5101474;28;20131;-68
2022/02/15 12:54:01;;;;;;;28.60;3.95;;;;;;;;;;5099928;28;20537;-70
2022/02/15 12:56:28;;;;;;;23.67;3.30;;;;;;;;;;5101483;28;20100;-70
2022/02/15 12:58:57;;;;;;;26.83;3.13;;;;;;;;;;5096968;28;20075;-71
2022/02/15 13:01:27;;;;;;;24.02;4.07;;;;;;;;;;5099937;28;20538;-69
2022/02/15 13:03:55;;;;;;;33.75;3.90;;;;;;;;;;5098479;28;20059;-69
2022/02/15 13:06:22;;;;;;;20.50;3.17;;;;;;;;;;5095728;28;20101;-69
2022/02/15 13:08:51;;;;;;;31.63;3.90;;;;;;;;;;5097664;28;20056;-69
2022/02/15 13:11:18;;;;;;;23.00;3.90;;;;;;;;;;5098017;28;20158;-69
2022/02/15 13:13:46;;;;;;;37.22;4.43;;;;;;;;;;5097861;28;20127;-70
2022/02/15 13:16:13;;;;;;;21.23;3.45;;;;;;;;;;5095912;28;20598;-70
2022/02/15 13:18:46;;;;;;;21.95;3.17;;;;;;;;;;5096792;28;20071;-68
2022/02/15 13:21:24;;;;;;;22.30;3.70;;;;;;;;;;5099288;28;20097;-69
2022/02/15 13:24:01;;;;;;;29.15;4.07;;;;;;;;;;5097965;28;20105;-69
2022/02/15 13:26:39;;;;;;;15.97;3.30;;;;;;;;;;5098277;28;20048;-69
2022/02/15 13:29:06;;;;;;;31.77;4.10;;;;;;;;;;5096873;28;20297;-70
2022/02/15 13:31:42;;;;;;;22.15;3.95;;;;;;;;;;5095377;28;20869;-70
2022/02/15 13:34:09;;;;;;;34.20;4.55;;;;;;;;;;5097403;28;20426;-70
2022/02/15 13:36:39;;;;;;;21.35;3.05;;;;;;;;;;5099063;28;20143;-70
2022/02/15 13:39:06;;;;;;;21.63;3.63;;;;;;;;;;5097887;28;20084;-70
2022/02/15 13:41:32;;;;;;;;;;;;;;;;;;5095876;28;20135;-70
2022/02/15 13:44:04;;;;;;;26.83;3.72;;;;;;;;;;5101896;27;19967;-69
2022/02/15 13:46:32;;;;;;;29.75;4.05;;;;;;;;;;5095518;28;20055;-69
2022/02/15 13:49:00;;;;;;;28.13;3.53;;;;;;;;;;5098192;28;20146;-69
2022/02/15 13:51:30;;;;;;;27.92;4.88;;;;;;;;;;5101925;28;20092;-69
2022/02/15 13:53:57;;;;;;;28.45;4.35;;;;;;;;;;5097297;28;20052;-69
2022/02/15 13:56:23;;;;;;;24.17;3.70;;;;;;;;;;5097660;28;20108;-69
2022/02/15 13:58:50;;;;;;;25.35;4.78;;;;;;;;;;5097581;28;20090;-68
2022/02/15 14:01:16;;;;;;;31.20;4.07;;;;;;;;;;5094393;28;20514;-69
2022/02/15 14:03:45;;;;;;;31.17;4.43;;;;;;;;;;5096840;28;20503;-69
2022/02/15 14:06:19;;;;;;;22.25;4.28;;;;;;;;;;5096452;28;20044;-68
2022/02/15 14:08:48;;;;;;;38.10;5.82;;;;;;;;;;5096460;28;20135;-68
2022/02/15 14:11:15;;;;;;;20.63;4.13;;;;;;;;;;5099006;28;20051;-68
2022/02/15 14:13:42;;;;;;;31.63;4.82;;;;;;;;;;5099363;28;20126;-68
2022/02/15 14:16:09;;;;;;;28.63;4.20;;;;;;;;;;5096835;28;20047;-68
2022/02/15 14:18:35;;;;;;;34.80;4.72;;;;;;;;;;5098143;28;20615;-68
2022/02/15 14:21:02;;;;;;;28.42;4.45;;;;;;;;;;5096567;28;20519;-67
2022/02/15 14:23:29;;;;;;;37.25;4.70;;;;;;;;;;5096642;28;20087;-66
2022/02/15 14:25:55;;;;;;;48.70;5.57;;;;;;;;;;5098211;28;20510;-68
2022/02/15 14:28:30;;;;;;;43.38;5.13;;;;;;;;;;5098752;28;20095;-68
2022/02/15 14:30:56;;;;;;;32.42;4.75;;;;;;;;;;5096076;28;20076;-68
2022/02/15 14:33:23;;;;;;;36.30;5.03;;;;;;;;;;5095228;28;20728;-68
2022/02/15 14:35:59;;;;;;;30.55;4.03;;;;;;;;;;5099357;28;20052;-68
2022/02/15 14:38:26;;;;;;;34.47;4.32;;;;;;;;;;5097613;28;20142;-68
2022/02/15 14:40:54;;;;;;;32.33;5.22;;;;;;;;;;5097427;28;20139;-68
2022/02/15 14:43:20;;;;;;;27.65;4.10;;;;;;;;;;5097205;28;20058;-69